Time;durP1;ratioP1;P1;durP2;ratioP2;P2;SDS_P1;SDS_P2;PMS_P1;PMS_P2;Temp;Humidity;BMP_temperature;BMP_pressure;BME280_temperature;BME280_humidity;BME280_pressure;Samples;Min_cycle;Max_cycle;Signal;HPM_P1;HPM_P2
2022/10/04 00:01:45;;;;;;;5.70;0.97;;;;;;;;;;5072417;28;20100;-64
2022/10/04 00:04:14;;;;;;;0.87;0.50;;;;;;;;;;5074620;28;20017;-64
2022/10/04 00:06:47;;;;;;;1.27;0.70;;;;;;;;;;5075179;28;20032;-64
2022/10/04 00:09:22;;;;;;;0.70;0.47;;;;;;;;;;5074977;28;20107;-66
2022/10/04 00:11:50;;;;;;;0.90;0.50;;;;;;;;;;5074688;28;20027;-67
2022/10/04 00:14:24;;;;;;;1.00;0.57;;;;;;;;;;5071575;28;20036;-67
2022/10/04 00:16:51;;;;;;;1.55;0.75;;;;;;;;;;5069945;28;20028;-67
2022/10/04 00:19:20;;;;;;;5.33;1.53;;;;;;;;;;5069493;28;20051;-67
2022/10/04 00:22:11;;;;;;;2.23;1.23;;;;;;;;;;5067920;28;20051;-67
2022/10/04 00:24:38;;;;;;;3.77;1.50;;;;;;;;;;5072531;28;20122;-66
2022/10/04 00:27:21;;;;;;;2.97;0.97;;;;;;;;;;5072848;28;20475;-67
2022/10/04 00:30:03;;;;;;;1.90;0.90;;;;;;;;;;5074286;28;20029;-66
2022/10/04 00:32:39;;;;;;;1.77;0.97;;;;;;;;;;5074628;28;20036;-66
2022/10/04 00:35:24;;;;;;;2.47;1.27;;;;;;;;;;5074720;28;20025;-66
2022/10/04 00:38:01;;;;;;;2.43;1.37;;;;;;;;;;5069210;28;20503;-66
2022/10/04 00:40:33;;;;;;;2.53;1.30;;;;;;;;;;5069536;28;20741;-67
2022/10/04 00:43:05;;;;;;;3.20;1.33;;;;;;;;;;5069510;28;20021;-66
2022/10/04 00:45:34;;;;;;;3.67;1.77;;;;;;;;;;5069453;28;20029;-66
2022/10/04 00:48:04;;;;;;;1.93;0.83;;;;;;;;;;5073982;28;20082;-67
2022/10/04 00:50:36;;;;;;;3.90;1.10;;;;;;;;;;5074589;28;20539;-66
2022/10/04 00:53:04;;;;;;;1.33;0.73;;;;;;;;;;5074321;28;20033;-66
2022/10/04 00:55:33;;;;;;;1.47;0.83;;;;;;;;;;5074054;28;20078;-66
2022/10/04 00:58:01;;;;;;;2.80;1.20;;;;;;;;;;5073240;28;20092;-66
2022/10/04 01:00:32;;;;;;;1.20;0.80;;;;;;;;;;5068888;28;20033;-66
2022/10/04 01:03:01;;;;;;;2.10;0.90;;;;;;;;;;5068648;28;20029;-66
2022/10/04 01:05:34;;;;;;;1.23;0.93;;;;;;;;;;5069070;28;20024;-66
2022/10/04 01:08:08;;;;;;;2.33;1.30;;;;;;;;;;5069356;28;20103;-66
2022/10/04 01:10:46;;;;;;;2.58;0.95;;;;;;;;;;5073942;28;20017;-66
2022/10/04 01:13:12;;;;;;;1.40;1.03;;;;;;;;;;5073309;28;20103;-66
2022/10/04 01:15:45;;;;;;;4.43;1.27;;;;;;;;;;5073854;28;20051;-65
2022/10/04 01:18:16;;;;;;;3.60;1.47;;;;;;;;;;5073685;28;20078;-66
2022/10/04 01:21:01;;;;;;;5.20;2.43;;;;;;;;;;5071785;28;20126;-67
2022/10/04 01:23:45;;;;;;;5.15;2.58;;;;;;;;;;5068178;28;20074;-66
2022/10/04 01:26:24;;;;;;;2.43;1.50;;;;;;;;;;5068517;28;20099;-66
2022/10/04 01:28:51;;;;;;;2.00;1.27;;;;;;;;;;5068463;28;20025;-66
2022/10/04 01:31:18;;;;;;;2.00;0.80;;;;;;;;;;5070936;28;20422;-65
2022/10/04 01:33:45;;;;;;;2.47;0.80;;;;;;;;;;5073122;28;20031;-65
2022/10/04 01:36:11;;;;;;;5.60;0.90;;;;;;;;;;5072458;28;20028;-65
2022/10/04 01:38:38;;;;;;;1.87;1.27;;;;;;;;;;5081095;28;20024;-65
2022/10/04 01:41:06;;;;;;;5.30;1.70;;;;;;;;;;5066954;28;20082;-65
2022/10/04 01:43:35;;;;;;;3.37;1.40;;;;;;;;;;5050744;28;20484;-65
2022/10/04 01:46:05;;;;;;;1.10;0.83;;;;;;;;;;5048327;28;20025;-67
2022/10/04 01:48:35;;;;;;;2.60;1.17;;;;;;;;;;5047740;28;20028;-65
2022/10/04 01:51:08;;;;;;;2.03;1.40;;;;;;;;;;5048338;28;20031;-65
2022/10/04 01:53:42;;;;;;;2.13;0.87;;;;;;;;;;5059243;28;20025;-65
2022/10/04 01:56:21;;;;;;;2.10;1.27;;;;;;;;;;5073091;28;20021;-65
2022/10/04 01:59:02;;;;;;;1.47;0.87;;;;;;;;;;5072467;28;20092;-65
2022/10/04 02:01:34;;;;;;;12.77;1.63;;;;;;;;;;5072970;28;20112;-65
2022/10/04 02:04:08;;;;;;;3.63;1.37;;;;;;;;;;5072667;28;20496;-65
2022/10/04 02:06:37;;;;;;;2.15;1.10;;;;;;;;;;5068960;28;20032;-65
2022/10/04 02:09:08;;;;;;;1.80;1.17;;;;;;;;;;5067411;28;20487;-65
2022/10/04 02:11:36;;;;;;;2.47;1.00;;;;;;;;;;5067732;28;20107;-65
2022/10/04 02:14:04;;;;;;;13.03;2.00;;;;;;;;;;5067036;28;20125;-65
2022/10/04 02:16:31;;;;;;;2.87;1.17;;;;;;;;;;5071154;28;20032;-65
2022/10/04 02:18:58;;;;;;;1.97;1.07;;;;;;;;;;5072186;28;20464;-65
2022/10/04 02:21:25;;;;;;;2.63;1.20;;;;;;;;;;5072619;28;20034;-65
2022/10/04 02:23:52;;;;;;;1.17;0.60;;;;;;;;;;5072595;28;20380;-65
2022/10/04 02:26:20;;;;;;;2.00;1.23;;;;;;;;;;5072553;28;20025;-65
2022/10/04 02:28:48;;;;;;;0.93;0.70;;;;;;;;;;5068878;28;20040;-65
2022/10/04 02:34:05;;;;;;;1.73;1.20;;;;;;;;;;5067345;28;20441;-65
2022/10/04 02:36:32;;;;;;;0.93;0.73;;;;;;;;;;5067171;28;20032;-63
2022/10/04 02:39:09;;;;;;;1.67;0.90;;;;;;;;;;5070597;28;20032;-63
2022/10/04 02:42:02;;;;;;;1.60;0.93;;;;;;;;;;5052490;28;20029;-63
2022/10/04 02:44:40;;;;;;;2.50;1.07;;;;;;;;;;5049041;28;20032;-63
2022/10/04 02:47:28;;;;;;;1.47;0.90;;;;;;;;;;5052424;28;20384;-63
2022/10/04 02:50:21;;;;;;;0.67;0.60;;;;;;;;;;5050325;28;20153;-63
2022/10/04 02:52:51;;;;;;;0.73;0.60;;;;;;;;;;5043586;28;20057;-63
2022/10/04 02:55:20;;;;;;;2.57;1.03;;;;;;;;;;5047111;28;20429;-63
2022/10/04 02:57:48;;;;;;;1.33;1.00;;;;;;;;;;5047327;28;20074;-63
2022/10/04 03:00:15;;;;;;;3.23;1.50;;;;;;;;;;5048491;28;20036;-63
2022/10/04 03:02:43;;;;;;;1.83;1.30;;;;;;;;;;5052239;28;20032;-63
2022/10/04 03:05:12;;;;;;;2.70;1.20;;;;;;;;;;5051723;28;20480;-63
2022/10/04 03:07:39;;;;;;;2.07;1.17;;;;;;;;;;5068772;28;20029;-63
2022/10/04 03:10:08;;;;;;;1.17;0.83;;;;;;;;;;5072217;28;20490;-63
2022/10/04 03:12:37;;;;;;;1.50;1.00;;;;;;;;;;5070046;28;20653;-63
2022/10/04 03:15:06;;;;;;;1.70;1.20;;;;;;;;;;5066991;28;20111;-63
2022/10/04 03:17:34;;;;;;;2.63;1.53;;;;;;;;;;5067014;28;20074;-63
2022/10/04 03:20:00;;;;;;;2.70;1.43;;;;;;;;;;5066933;28;20029;-63
2022/10/04 03:22:27;;;;;;;2.93;1.63;;;;;;;;;;5068268;28;20024;-63
2022/10/04 03:24:56;;;;;;;4.23;1.80;;;;;;;;;;5071917;28;20423;-63
2022/10/04 03:27:25;;;;;;;2.63;1.33;;;;;;;;;;5070596;28;20447;-64
2022/10/04 03:29:53;;;;;;;2.97;1.23;;;;;;;;;;5071313;28;20024;-62
2022/10/04 03:32:20;;;;;;;1.63;1.10;;;;;;;;;;5071779;28;20020;-63
2022/10/04 03:34:52;;;;;;;1.77;1.23;;;;;;;;;;5070283;28;20033;-63
2022/10/04 03:37:20;;;;;;;1.40;1.00;;;;;;;;;;5066842;28;20032;-63
2022/10/04 03:39:48;;;;;;;1.53;1.00;;;;;;;;;;5066553;28;20090;-63
2022/10/04 03:42:16;;;;;;;0.73;0.70;;;;;;;;;;5066109;28;20540;-63
2022/10/04 03:44:46;;;;;;;1.83;1.33;;;;;;;;;;5067777;28;20033;-63
2022/10/04 03:47:16;;;;;;;7.00;0.83;;;;;;;;;;5071580;28;20019;-63
2022/10/04 03:49:43;;;;;;;0.70;0.50;;;;;;;;;;5071538;28;20035;-62
2022/10/04 03:52:17;;;;;;;0.40;0.40;;;;;;;;;;5068663;28;20530;-62
2022/10/04 03:54:44;;;;;;;1.05;0.57;;;;;;;;;;5056972;28;20020;-61
2022/10/04 03:57:12;;;;;;;0.53;0.43;;;;;;;;;;5068242;28;20052;-60
2022/10/04 03:59:39;;;;;;;1.03;0.63;;;;;;;;;;5065397;28;20108;-61
2022/10/04 04:02:10;;;;;;;0.27;0.20;;;;;;;;;;5068942;28;20033;-61
2022/10/04 04:04:49;;;;;;;0.83;0.57;;;;;;;;;;5090310;28;20020;-61
2022/10/04 04:07:34;;;;;;;0.77;0.40;;;;;;;;;;5082609;28;20358;-61
2022/10/04 04:10:04;;;;;;;0.32;0.32;;;;;;;;;;5075228;28;20079;-61
2022/10/04 04:12:39;;;;;;;0.37;0.37;;;;;;;;;;5074723;28;20021;-61
2022/10/04 04:15:11;;;;;;;0.60;0.30;;;;;;;;;;5074992;28;20044;-62
2022/10/04 04:17:45;;;;;;;0.83;0.43;;;;;;;;;;5075184;28;20025;-61
2022/10/04 04:20:30;;;;;;;0.20;0.20;;;;;;;;;;5087579;28;20025;-61
2022/10/04 04:22:59;;;;;;;0.40;0.40;;;;;;;;;;5090060;28;20108;-62
2022/10/04 04:25:27;;;;;;;0.50;0.50;;;;;;;;;;5090082;28;20103;-61
2022/10/04 04:28:00;;;;;;;0.83;0.53;;;;;;;;;;5076806;28;20029;-61
2022/10/04 04:30:26;;;;;;;0.40;0.30;;;;;;;;;;5072932;28;20055;-61
2022/10/04 04:32:55;;;;;;;0.40;0.40;;;;;;;;;;5074291;28;20035;-61
2022/10/04 04:35:31;;;;;;;0.30;0.30;;;;;;;;;;5074333;28;20086;-61
2022/10/04 04:38:03;;;;;;;0.53;0.50;;;;;;;;;;5074036;28;20075;-61
2022/10/04 04:40:30;;;;;;;0.43;0.43;;;;;;;;;;5074507;28;20494;-61
2022/10/04 04:42:58;;;;;;;0.77;0.63;;;;;;;;;;5069928;28;20064;-61
2022/10/04 04:45:28;;;;;;;0.97;0.50;;;;;;;;;;5057146;28;20021;-61
2022/10/04 04:48:00;;;;;;;0.40;0.40;;;;;;;;;;5069117;28;20367;-61
2022/10/04 04:50:37;;;;;;;0.57;0.57;;;;;;;;;;5069354;28;20025;-61
2022/10/04 04:53:12;;;;;;;0.90;0.47;;;;;;;;;;5062681;28;20032;-61
2022/10/04 04:55:41;;;;;;;0.33;0.33;;;;;;;;;;5067731;28;20158;-61
2022/10/04 04:58:09;;;;;;;1.73;0.40;;;;;;;;;;5073451;28;20100;-61
2022/10/04 05:00:37;;;;;;;0.77;0.60;;;;;;;;;;5073415;28;20047;-61
2022/10/04 05:03:15;;;;;;;0.67;0.50;;;;;;;;;;5073601;28;20035;-61
2022/10/04 05:05:45;;;;;;;0.20;0.20;;;;;;;;;;5068122;28;20086;-61
2022/10/04 05:08:18;;;;;;;2.57;0.73;;;;;;;;;;5067786;28;20039;-61
2022/10/04 05:10:47;;;;;;;1.20;0.70;;;;;;;;;;5068329;28;20039;-61
2022/10/04 05:13:15;;;;;;;1.50;0.80;;;;;;;;;;5067230;28;20040;-61
2022/10/04 05:15:42;;;;;;;0.70;0.60;;;;;;;;;;5072770;28;20028;-61
2022/10/04 05:18:27;;;;;;;0.97;0.57;;;;;;;;;;5073551;28;20055;-62
2022/10/04 05:20:55;;;;;;;0.70;0.43;;;;;;;;;;5072948;28;20025;-61
2022/10/04 05:23:22;;;;;;;1.00;0.60;;;;;;;;;;5073587;28;20051;-61
2022/10/04 05:25:49;;;;;;;0.73;0.40;;;;;;;;;;5072790;28;20036;-61
2022/10/04 05:28:19;;;;;;;0.40;0.40;;;;;;;;;;5067910;28;20471;-61
2022/10/04 05:30:49;;;;;;;0.37;0.37;;;;;;;;;;5067535;28;20050;-62
2022/10/04 05:33:45;;;;;;;0.73;0.57;;;;;;;;;;5068223;28;20035;-61
2022/10/04 05:36:12;;;;;;;;;;;;;;;;;;5039268;28;20044;-61
2022/10/04 05:38:55;;;;;;;0.30;0.27;;;;;;;;;;5073099;28;19927;-61
2022/10/04 05:41:31;;;;;;;0.60;0.40;;;;;;;;;;5072749;28;20043;-61
2022/10/04 05:43:58;;;;;;;0.50;0.47;;;;;;;;;;5072912;28;20035;-61
2022/10/04 05:46:24;;;;;;;0.50;0.50;;;;;;;;;;5072568;28;20035;-61
2022/10/04 05:48:55;;;;;;;2.77;1.50;;;;;;;;;;5071292;28;20070;-61
2022/10/04 05:51:23;;;;;;;1.27;0.80;;;;;;;;;;5067366;28;20052;-61
2022/10/04 05:53:50;;;;;;;1.03;0.73;;;;;;;;;;5067390;28;20584;-61
2022/10/04 05:56:53;;;;;;;0.47;0.40;;;;;;;;;;5067192;28;20032;-61
2022/10/04 05:59:22;;;;;;;1.13;0.93;;;;;;;;;;4990371;28;20382;-61
2022/10/04 06:02:07;;;;;;;1.50;0.80;;;;;;;;;;5050616;28;20036;-61
2022/10/04 06:04:41;;;;;;;1.92;1.30;;;;;;;;;;5072277;28;20056;-61
2022/10/04 06:07:17;;;;;;;0.70;0.70;;;;;;;;;;5072271;28;20627;-61
2022/10/04 06:09:53;;;;;;;2.10;0.80;;;;;;;;;;5072052;28;20040;-61
2022/10/04 06:12:30;;;;;;;0.67;0.67;;;;;;;;;;5068387;28;20064;-61
2022/10/04 06:15:15;;;;;;;1.97;0.63;;;;;;;;;;5067217;28;20343;-62
2022/10/04 06:17:42;;;;;;;;;;;;;;;;;;5067722;28;20103;-61
2022/10/04 06:20:08;;;;;;;0.87;0.53;;;;;;;;;;5066974;28;19915;-60
2022/10/04 06:22:43;;;;;;;0.50;0.50;;;;;;;;;;5071002;28;20444;-61
2022/10/04 06:25:14;;;;;;;0.85;0.60;;;;;;;;;;5072170;28;20360;-61
2022/10/04 06:27:42;;;;;;;0.40;0.40;;;;;;;;;;5072221;28;20064;-60
2022/10/04 06:30:19;;;;;;;1.00;0.70;;;;;;;;;;5072419;28;20028;-61
2022/10/04 06:33:03;;;;;;;0.30;0.27;;;;;;;;;;5071766;28;20380;-60
2022/10/04 06:35:30;;;;;;;0.63;0.33;;;;;;;;;;5066570;28;20036;-62
2022/10/04 06:37:57;;;;;;;0.10;0.10;;;;;;;;;;5066784;28;20050;-61
2022/10/04 06:40:25;;;;;;;1.20;0.33;;;;;;;;;;5066844;28;20104;-60
2022/10/04 06:43:04;;;;;;;0.70;0.60;;;;;;;;;;5066609;28;20081;-61
2022/10/04 06:45:34;;;;;;;0.30;0.30;;;;;;;;;;5071748;28;20028;-63
2022/10/04 06:48:11;;;;;;;2.00;0.43;;;;;;;;;;5072216;28;20025;-61
2022/10/04 06:51:00;;;;;;;0.20;0.20;;;;;;;;;;5072012;28;20020;-61
2022/10/04 06:53:45;;;;;;;0.40;0.40;;;;;;;;;;5071647;28;20033;-60
2022/10/04 06:56:30;;;;;;;0.60;0.40;;;;;;;;;;5069390;28;20657;-60
2022/10/04 06:58:57;;;;;;;0.65;0.40;;;;;;;;;;5066828;28;20029;-61
2022/10/04 07:01:34;;;;;;;0.87;0.60;;;;;;;;;;5066261;28;20050;-61
2022/10/04 07:04:06;;;;;;;0.17;0.17;;;;;;;;;;5066550;28;20034;-61
2022/10/04 07:06:46;;;;;;;0.43;0.40;;;;;;;;;;5068280;28;20074;-62
2022/10/04 07:09:21;;;;;;;0.60;0.40;;;;;;;;;;5071775;28;20028;-61
2022/10/04 07:12:08;;;;;;;0.27;0.20;;;;;;;;;;5071094;28;20118;-60
2022/10/04 07:14:37;;;;;;;1.30;0.30;;;;;;;;;;5072044;28;20036;-61
2022/10/04 07:17:11;;;;;;;0.30;0.30;;;;;;;;;;5071775;28;20494;-60
2022/10/04 07:19:37;;;;;;;0.43;0.30;;;;;;;;;;5067421;28;20460;-60
2022/10/04 07:22:04;;;;;;;0.90;0.47;;;;;;;;;;5065858;28;20111;-61
2022/10/04 07:24:34;;;;;;;0.20;0.20;;;;;;;;;;5066220;28;20033;-60
2022/10/04 07:27:01;;;;;;;0.10;0.10;;;;;;;;;;5066424;28;20032;-60
2022/10/04 07:29:30;;;;;;;0.83;0.50;;;;;;;;;;5069805;28;20029;-60
2022/10/04 07:32:12;;;;;;;0.27;0.27;;;;;;;;;;5071509;28;20104;-60
2022/10/04 07:34:45;;;;;;;0.10;0.10;;;;;;;;;;5071036;28;20032;-60
2022/10/04 07:37:13;;;;;;;0.57;0.30;;;;;;;;;;5074248;28;20032;-60
2022/10/04 07:39:57;;;;;;;0.73;0.50;;;;;;;;;;5075633;28;20054;-60
2022/10/04 07:42:24;;;;;;;0.75;0.52;;;;;;;;;;5069411;28;20024;-60
2022/10/04 07:45:16;;;;;;;0.20;0.10;;;;;;;;;;5069717;28;20040;-60
2022/10/04 07:47:43;;;;;;;0.43;0.27;;;;;;;;;;5066460;28;20490;-61
2022/10/04 07:50:28;;;;;;;0.50;0.50;;;;;;;;;;5050242;28;20025;-60
2022/10/04 07:52:58;;;;;;;0.35;0.28;;;;;;;;;;5060664;28;20043;-60
2022/10/04 07:55:43;;;;;;;0.10;0.10;;;;;;;;;;5075040;28;20044;-60
2022/10/04 07:58:18;;;;;;;0.10;0.00;;;;;;;;;;5074639;28;20024;-60
2022/10/04 08:01:03;;;;;;;0.20;0.10;;;;;;;;;;5074853;28;20048;-60
2022/10/04 08:03:51;;;;;;;0.30;0.30;;;;;;;;;;5071873;28;20052;-60
2022/10/04 08:06:29;;;;;;;0.73;0.30;;;;;;;;;;5069285;28;20036;-60
2022/10/04 08:09:02;;;;;;;0.50;0.23;;;;;;;;;;5069234;28;20028;-60
2022/10/04 08:11:48;;;;;;;0.17;0.17;;;;;;;;;;5069563;28;20040;-60
2022/10/04 08:14:17;;;;;;;0.00;0.00;;;;;;;;;;5073411;28;20373;-60
2022/10/04 08:17:13;;;;;;;0.40;0.37;;;;;;;;;;5074092;28;20028;-60
2022/10/04 08:19:39;;;;;;;;;;;;;;;;;;5057426;28;20511;-60
2022/10/04 08:22:12;;;;;;;1.37;0.40;;;;;;;;;;5074387;28;19930;-60
2022/10/04 08:24:39;;;;;;;0.30;0.20;;;;;;;;;;5074718;28;20027;-60
2022/10/04 08:27:08;;;;;;;0.53;0.53;;;;;;;;;;5068787;28;20029;-61
2022/10/04 08:29:41;;;;;;;2.73;1.07;;;;;;;;;;5068933;28;20029;-61
2022/10/04 08:32:14;;;;;;;0.73;0.47;;;;;;;;;;5068676;28;20024;-60
2022/10/04 08:35:00;;;;;;;0.30;0.27;;;;;;;;;;5069379;28;20060;-60
2022/10/04 08:37:41;;;;;;;0.77;0.57;;;;;;;;;;5073235;28;20545;-60
2022/10/04 08:40:07;;;;;;;1.03;0.47;;;;;;;;;;5054400;28;20025;-60
2022/10/04 08:42:34;;;;;;;0.20;0.20;;;;;;;;;;5067154;28;20051;-60
2022/10/04 08:45:15;;;;;;;0.37;0.37;;;;;;;;;;5074034;28;20109;-60
2022/10/04 08:47:51;;;;;;;0.37;0.37;;;;;;;;;;5070865;28;20100;-60
2022/10/04 08:50:37;;;;;;;0.67;0.30;;;;;;;;;;5068645;28;20024;-60
2022/10/04 08:53:20;;;;;;;0.30;0.30;;;;;;;;;;5068165;28;20115;-61
2022/10/04 08:55:57;;;;;;;0.20;0.20;;;;;;;;;;5068705;28;20394;-60
2022/10/04 08:58:30;;;;;;;0.20;0.20;;;;;;;;;;5070390;28;20028;-60
2022/10/04 09:00:59;;;;;;;2.30;0.30;;;;;;;;;;5073637;28;20020;-61
2022/10/04 09:03:35;;;;;;;0.13;0.13;;;;;;;;;;5073826;28;20051;-60
2022/10/04 09:06:20;;;;;;;0.20;0.20;;;;;;;;;;5073840;28;20090;-60
2022/10/04 09:08:47;;;;;;;0.70;0.60;;;;;;;;;;5071870;28;20032;-60
2022/10/04 09:11:25;;;;;;;0.77;0.60;;;;;;;;;;5068965;28;20091;-60
2022/10/04 09:14:10;;;;;;;0.77;0.47;;;;;;;;;;5068378;28;20032;-60
2022/10/04 09:16:48;;;;;;;0.22;0.20;;;;;;;;;;5053344;28;20039;-61
2022/10/04 09:19:46;;;;;;;0.30;0.20;;;;;;;;;;5068427;28;20069;-60
2022/10/04 09:22:19;;;;;;;0.30;0.30;;;;;;;;;;5073449;28;20101;-60
2022/10/04 09:25:04;;;;;;;0.40;0.27;;;;;;;;;;5073723;28;20393;-60
2022/10/04 09:27:50;;;;;;;0.30;0.30;;;;;;;;;;5072733;28;20319;-60
2022/10/04 09:30:20;;;;;;;2.53;0.90;;;;;;;;;;5072845;28;20543;-60
2022/10/04 09:32:59;;;;;;;0.83;0.53;;;;;;;;;;5070276;28;20032;-60
2022/10/04 09:35:44;;;;;;;0.63;0.53;;;;;;;;;;5067940;28;20288;-60
2022/10/04 09:38:29;;;;;;;0.63;0.40;;;;;;;;;;5067228;28;20024;-60
2022/10/04 09:41:00;;;;;;;0.22;0.13;;;;;;;;;;5067827;28;20155;-60
2022/10/04 09:43:27;;;;;;;0.30;0.30;;;;;;;;;;5070293;28;20028;-60
2022/10/04 09:45:54;;;;;;;0.30;0.27;;;;;;;;;;5072707;28;20268;-60
2022/10/04 09:48:26;;;;;;;0.20;0.20;;;;;;;;;;5072706;28;20344;-60
2022/10/04 09:51:12;;;;;;;0.27;0.27;;;;;;;;;;5072772;28;20265;-59
2022/10/04 09:53:41;;;;;;;0.57;0.20;;;;;;;;;;5057924;28;20119;-59
2022/10/04 09:56:16;;;;;;;0.23;0.23;;;;;;;;;;5067384;28;20020;-60
2022/10/04 09:59:01;;;;;;;0.83;0.50;;;;;;;;;;5066636;28;20410;-60
2022/10/04 10:01:28;;;;;;;0.60;0.60;;;;;;;;;;5067532;28;20885;-60
2022/10/04 10:03:54;;;;;;;0.40;0.30;;;;;;;;;;5066393;28;20368;-60
2022/10/04 10:06:27;;;;;;;0.70;0.60;;;;;;;;;;5072275;28;20261;-60
2022/10/04 10:09:12;;;;;;;0.10;0.10;;;;;;;;;;5072123;28;20280;-60
2022/10/04 10:15:02;;;;;;;0.53;0.40;;;;;;;;;;5058336;28;20098;-60
2022/10/04 10:17:50;;;;;;;2.43;0.30;;;;;;;;;;5068929;28;20740;-61
2022/10/04 10:20:22;;;;;;;0.33;0.17;;;;;;;;;;5066614;28;20272;-59
2022/10/04 10:23:01;;;;;;;0.20;0.20;;;;;;;;;;5066835;28;20319;-60
2022/10/04 10:25:43;;;;;;;0.10;0.10;;;;;;;;;;5066998;28;20253;-60
2022/10/04 10:28:13;;;;;;;0.67;0.60;;;;;;;;;;5070614;28;20265;-59
2022/10/04 10:30:58;;;;;;;1.03;0.87;;;;;;;;;;5072283;28;20257;-60
2022/10/04 10:33:36;;;;;;;1.17;0.87;;;;;;;;;;5071804;28;20292;-60
2022/10/04 10:36:25;;;;;;;1.07;0.97;;;;;;;;;;5072144;28;20305;-60
2022/10/04 10:39:03;;;;;;;1.53;1.17;;;;;;;;;;5070575;28;20261;-60
2022/10/04 10:41:54;;;;;;;0.93;0.70;;;;;;;;;;5059764;28;20276;-60
2022/10/04 10:44:25;;;;;;;0.53;0.50;;;;;;;;;;5066768;28;20314;-60
2022/10/04 10:47:10;;;;;;;0.40;0.40;;;;;;;;;;5066637;28;20352;-60
2022/10/04 10:49:48;;;;;;;0.22;0.22;;;;;;;;;;5062597;28;20808;-60
2022/10/04 10:52:21;;;;;;;1.13;0.80;;;;;;;;;;5071922;28;20029;-59
2022/10/04 10:55:06;;;;;;;1.00;0.80;;;;;;;;;;5071506;28;20273;-60
2022/10/04 10:57:40;;;;;;;0.57;0.50;;;;;;;;;;5071563;28;20283;-60
2022/10/04 11:00:20;;;;;;;0.27;0.20;;;;;;;;;;5072050;28;20043;-60
2022/10/04 11:02:59;;;;;;;0.37;0.37;;;;;;;;;;5067110;28;20274;-60
2022/10/04 11:05:37;;;;;;;0.20;0.20;;;;;;;;;;5066484;28;20355;-60
2022/10/04 11:08:18;;;;;;;1.20;0.73;;;;;;;;;;5066104;28;20414;-60
2022/10/04 11:11:17;;;;;;;1.00;0.80;;;;;;;;;;5067039;28;20277;-60
2022/10/04 11:14:12;;;;;;;0.20;0.20;;;;;;;;;;5002003;28;20511;-60
2022/10/04 11:16:57;;;;;;;0.10;0.10;;;;;;;;;;5062968;28;20257;-60
2022/10/04 11:19:39;;;;;;;0.85;0.60;;;;;;;;;;5076071;28;20257;-59
2022/10/04 11:22:24;;;;;;;1.57;0.93;;;;;;;;;;5075417;28;20024;-60
2022/10/04 11:24:58;;;;;;;4.47;0.85;;;;;;;;;;5071542;28;20331;-61
2022/10/04 11:27:30;;;;;;;0.57;0.53;;;;;;;;;;5055176;28;20107;-60
2022/10/04 11:30:09;;;;;;;0.37;0.33;;;;;;;;;;5070164;28;20275;-60
2022/10/04 11:32:54;;;;;;;0.60;0.57;;;;;;;;;;5069780;28;20278;-60
2022/10/04 11:35:27;;;;;;;0.40;0.32;;;;;;;;;;5074888;28;20651;-60
2022/10/04 11:38:12;;;;;;;0.43;0.40;;;;;;;;;;5075136;28;20024;-60
2022/10/04 11:40:45;;;;;;;3.10;1.10;;;;;;;;;;5074353;28;20318;-60
2022/10/04 11:43:15;;;;;;;4.33;0.80;;;;;;;;;;5075213;28;20383;-60
2022/10/04 11:46:15;;;;;;;0.30;0.30;;;;;;;;;;5074893;28;20264;-60
2022/10/04 11:48:59;;;;;;;1.07;0.90;;;;;;;;;;5006294;28;20270;-60
2022/10/04 11:51:46;;;;;;;0.47;0.43;;;;;;;;;;5063221;28;20318;-59
2022/10/04 11:54:31;;;;;;;2.47;1.13;;;;;;;;;;5069432;28;20028;-59
2022/10/04 11:57:21;;;;;;;0.65;0.55;;;;;;;;;;5072645;28;20352;-60
2022/10/04 11:59:56;;;;;;;0.50;0.50;;;;;;;;;;5037880;28;20076;-60
2022/10/04 12:02:41;;;;;;;1.00;0.50;;;;;;;;;;5058055;28;20308;-59
2022/10/04 12:05:19;;;;;;;0.47;0.38;;;;;;;;;;5074965;28;20376;-60
2022/10/04 12:07:53;;;;;;;0.33;0.33;;;;;;;;;;5074574;28;20025;-60
2022/10/04 12:10:20;;;;;;;0.50;0.50;;;;;;;;;;5068889;28;20266;-59
2022/10/04 12:12:57;;;;;;;0.43;0.43;;;;;;;;;;5069409;28;20432;-60
2022/10/04 12:15:37;;;;;;;2.17;1.13;;;;;;;;;;5069021;28;20257;-59
2022/10/04 12:18:05;;;;;;;1.27;0.90;;;;;;;;;;5069655;28;20277;-60
2022/10/04 12:20:38;;;;;;;1.13;0.93;;;;;;;;;;5073952;28;20269;-60
2022/10/04 12:23:08;;;;;;;0.83;0.60;;;;;;;;;;5073633;28;20262;-60
2022/10/04 12:25:41;;;;;;;5.20;1.87;;;;;;;;;;5074528;28;20314;-60
2022/10/04 12:28:19;;;;;;;0.90;0.73;;;;;;;;;;5074128;28;20277;-60
2022/10/04 12:31:04;;;;;;;0.80;0.63;;;;;;;;;;5059299;28;20273;-60
2022/10/04 12:33:47;;;;;;;1.42;1.13;;;;;;;;;;5068846;28;20291;-60
2022/10/04 12:36:25;;;;;;;7.60;1.37;;;;;;;;;;5068863;28;20071;-59
2022/10/04 12:38:52;;;;;;;0.60;0.57;;;;;;;;;;5068811;28;20284;-59
2022/10/04 12:41:24;;;;;;;10.47;2.50;;;;;;;;;;5071218;28;20740;-59
2022/10/04 12:43:59;;;;;;;10.50;0.87;;;;;;;;;;5074489;28;20268;-59
2022/10/04 12:46:25;;;;;;;2.40;1.25;;;;;;;;;;5072108;28;20308;-59
2022/10/04 12:49:10;;;;;;;5.23;1.13;;;;;;;;;;5072749;28;20029;-61
2022/10/04 12:51:45;;;;;;;2.95;1.27;;;;;;;;;;5074028;28;20276;-59
2022/10/04 12:54:17;;;;;;;3.17;2.30;;;;;;;;;;5070119;28;20029;-61
2022/10/04 12:56:55;;;;;;;2.60;1.10;;;;;;;;;;5068693;28;20051;-59
2022/10/04 12:59:22;;;;;;;10.83;1.80;;;;;;;;;;5068171;28;20299;-60
2022/10/04 13:02:01;;;;;;;4.13;1.63;;;;;;;;;;5068304;28;20323;-60
2022/10/04 13:04:31;;;;;;;6.27;2.00;;;;;;;;;;5072778;28;20816;-60
2022/10/04 13:07:00;;;;;;;4.63;2.10;;;;;;;;;;5091654;28;20267;-59
2022/10/04 13:09:46;;;;;;;10.97;1.47;;;;;;;;;;5089483;28;20724;-59
2022/10/04 13:12:37;;;;;;;2.38;1.23;;;;;;;;;;5073711;28;20272;-59
2022/10/04 13:15:22;;;;;;;3.47;0.80;;;;;;;;;;5044885;28;20048;-59
2022/10/04 13:17:55;;;;;;;1.10;0.88;;;;;;;;;;5067830;28;20608;-59
2022/10/04 13:20:34;;;;;;;1.20;0.90;;;;;;;;;;5068479;28;20021;-59
2022/10/04 13:23:19;;;;;;;6.53;1.43;;;;;;;;;;5068141;28;20484;-61
2022/10/04 13:25:50;;;;;;;1.15;0.90;;;;;;;;;;5070022;28;20031;-60
2022/10/04 13:28:29;;;;;;;12.63;1.13;;;;;;;;;;5072932;28;20356;-60
2022/10/04 13:31:03;;;;;;;4.07;1.57;;;;;;;;;;5073149;28;20040;-60
2022/10/04 13:33:36;;;;;;;2.57;1.47;;;;;;;;;;5072014;28;20024;-60
2022/10/04 13:36:06;;;;;;;0.50;0.50;;;;;;;;;;5072996;28;20464;-60
2022/10/04 13:38:34;;;;;;;0.97;0.87;;;;;;;;;;5069590;28;20377;-59
2022/10/04 13:41:19;;;;;;;0.70;0.63;;;;;;;;;;5067886;28;20469;-60
2022/10/04 13:43:49;;;;;;;0.43;0.43;;;;;;;;;;5067228;28;20379;-59
2022/10/04 13:46:23;;;;;;;1.30;0.87;;;;;;;;;;5067313;28;20059;-60
2022/10/04 13:48:54;;;;;;;0.38;0.35;;;;;;;;;;5071110;28;20403;-59
2022/10/04 13:51:28;;;;;;;2.70;1.43;;;;;;;;;;5072805;28;20028;-60
2022/10/04 13:56:58;;;;;;;2.97;0.85;;;;;;;;;;5069955;28;20064;-59
2022/10/04 13:59:43;;;;;;;1.60;0.98;;;;;;;;;;5071866;28;20049;-59
2022/10/04 14:02:16;;;;;;;1.33;0.93;;;;;;;;;;5067378;28;20028;-60
2022/10/04 14:04:56;;;;;;;2.57;1.20;;;;;;;;;;5061737;28;20017;-60
2022/10/04 14:07:33;;;;;;;1.17;0.80;;;;;;;;;;5062143;28;20033;-60
2022/10/04 14:10:00;;;;;;;2.83;1.63;;;;;;;;;;5068678;28;20032;-59
2022/10/04 14:12:47;;;;;;;2.60;2.03;;;;;;;;;;5072640;28;20029;-60
2022/10/04 14:15:17;;;;;;;3.63;2.40;;;;;;;;;;5070767;28;20032;-60
2022/10/04 14:17:59;;;;;;;5.97;2.83;;;;;;;;;;5072142;28;20103;-60
2022/10/04 14:20:44;;;;;;;13.17;2.93;;;;;;;;;;5068274;28;20025;-61
2022/10/04 14:23:34;;;;;;;4.18;1.65;;;;;;;;;;5068870;28;20024;-60
2022/10/04 14:26:00;;;;;;;2.20;1.37;;;;;;;;;;5066887;28;20479;-60
2022/10/04 14:28:37;;;;;;;2.60;1.30;;;;;;;;;;5067045;28;20040;-60
2022/10/04 14:31:18;;;;;;;3.90;1.80;;;;;;;;;;5055268;28;20476;-60
2022/10/04 14:34:05;;;;;;;5.60;2.83;;;;;;;;;;5051901;28;20488;-60
2022/10/04 14:36:49;;;;;;;4.57;2.50;;;;;;;;;;5057875;28;20111;-60
2022/10/04 14:39:34;;;;;;;2.83;1.65;;;;;;;;;;5072493;28;20017;-60
2022/10/04 14:42:22;;;;;;;3.25;1.73;;;;;;;;;;5072012;28;20131;-60
2022/10/04 14:45:07;;;;;;;2.47;1.37;;;;;;;;;;5070140;28;20507;-60
2022/10/04 14:47:34;;;;;;;1.90;1.13;;;;;;;;;;5058042;28;20033;-60
2022/10/04 14:50:05;;;;;;;1.47;1.00;;;;;;;;;;5066829;28;20181;-60
2022/10/04 14:52:37;;;;;;;1.17;0.73;;;;;;;;;;5066967;28;20119;-60
2022/10/04 14:55:15;;;;;;;0.73;0.47;;;;;;;;;;5069469;28;20017;-60
2022/10/04 14:57:54;;;;;;;1.00;0.60;;;;;;;;;;5070373;28;20032;-60
2022/10/04 15:00:27;;;;;;;31.90;1.70;;;;;;;;;;5072456;28;20024;-60
2022/10/04 15:02:58;;;;;;;4.00;1.30;;;;;;;;;;5072000;28;20052;-60
2022/10/04 15:05:37;;;;;;;1.60;0.87;;;;;;;;;;5057499;28;20029;-60
2022/10/04 15:08:20;;;;;;;3.63;0.77;;;;;;;;;;5064400;28;20020;-61
2022/10/04 15:10:52;;;;;;;4.40;1.43;;;;;;;;;;5066969;28;20403;-60
2022/10/04 15:13:25;;;;;;;2.77;1.10;;;;;;;;;;5066446;28;20501;-60
2022/10/04 15:15:57;;;;;;;1.73;1.23;;;;;;;;;;5066737;28;20479;-60
2022/10/04 15:18:34;;;;;;;2.13;1.30;;;;;;;;;;5071135;28;20028;-60
2022/10/04 15:21:20;;;;;;;3.00;1.27;;;;;;;;;;5071717;28;20403;-60
2022/10/04 15:23:48;;;;;;;1.10;0.80;;;;;;;;;;5058387;28;20035;-60
2022/10/04 15:26:21;;;;;;;2.53;1.10;;;;;;;;;;5071780;28;20028;-60
2022/10/04 15:28:53;;;;;;;1.27;0.70;;;;;;;;;;5069803;28;20028;-60
2022/10/04 15:31:38;;;;;;;0.90;0.80;;;;;;;;;;5066304;28;20029;-60
2022/10/04 15:34:04;;;;;;;;;;;;;;;;;;5066663;28;20111;-60
2022/10/04 15:36:59;;;;;;;2.63;1.40;;;;;;;;;;5065880;28;19914;-60
2022/10/04 15:39:41;;;;;;;1.70;1.13;;;;;;;;;;5019444;28;20492;-61